.
WxDataArchive / Data Records for 2007-12-04
2007-12-03 December 2007 2007-12-05

Data Records for Tuesday, 04 December 2007

Time	Temp	Chill	HIndex	Humid	Dewpt	 Wind 	HiWind	WindDir	Rain 	Barom 
-----	----	-----	------	-----	-----	------	------	-------	-----	----- 
00:00	27.9	27.9	27.9	73	20.4	1	4	270	0.00	30.095 
00:05	27.9	27.9	27.9	73	20.4	1	2	270	0.00	30.098 
00:10	27.9	27.9	27.9	74	20.7	1	4	248	0.00	30.101 
00:15	27.9	27.9	27.9	73	20.4	1	4	270	0.00	30.100 
00:20	27.8	27.8	27.8	74	20.6	1	4	248	0.00	30.102 
00:25	27.8	27.8	27.8	74	20.6	1	3	270	0.00	30.101 
00:30	27.8	27.8	27.8	75	20.9	0	1	270	0.00	30.101 
00:35	27.8	27.8	27.8	75	20.9	1	3	270	0.00	30.096 
00:40	27.8	27.8	27.8	75	20.9	1	3	248	0.00	30.093 
00:45	27.8	27.8	27.8	75	20.9	1	3	270	0.00	30.092 
00:50	27.8	27.8	27.8	76	21.2	1	3	270	0.00	30.089 
00:55	27.6	27.6	27.6	76	21.0	0	2	270	0.00	30.086 
01:00	27.6	27.6	27.6	76	21.0	1	4	270	0.00	30.084 
01:05	27.6	27.6	27.6	76	21.0	0	2	248	0.00	30.081 
01:10	27.6	27.6	27.6	77	21.4	0	2	248	0.00	30.074 
01:15	27.6	27.6	27.6	77	21.4	0	2	248	0.00	30.072 
01:20	27.6	27.6	27.6	77	21.4	0	2	248	0.00	30.071 
01:25	27.6	27.6	27.6	77	21.4	0	2	248	0.00	30.067 
01:30	27.6	27.6	27.6	77	21.4	0	2	248	0.00	30.068 
01:35	27.6	27.6	27.6	77	21.4	0	2	315	0.00	30.068 
01:40	27.6	27.6	27.6	77	21.4	0	1	315	0.00	30.069 
01:45	27.6	27.6	27.6	77	21.4	0	3	270	0.00	30.067 
01:50	27.6	27.6	27.6	77	21.4	0	2	270	0.00	30.065 
01:55	27.8	27.8	27.8	77	21.5	0	2	270	0.00	30.059 
02:00	27.8	27.8	27.8	77	21.5	0	2	270	0.00	30.057 
02:05	27.8	27.8	27.8	77	21.5	0	1	270	0.00	30.055 
02:10	27.8	27.8	27.8	77	21.5	1	2	270	0.00	30.053 
02:15	27.8	27.8	27.8	77	21.5	1	2	270	0.00	30.052 
02:20	27.8	27.8	27.8	77	21.5	1	4	248	0.00	30.053 
02:25	27.8	27.8	27.8	77	21.5	1	4	248	0.00	30.056 
02:30	27.8	27.8	27.8	77	21.5	1	4	248	0.00	30.053 
02:35	27.8	27.8	27.8	77	21.5	2	3	270	0.00	30.054 
02:40	27.8	27.8	27.8	77	21.5	2	5	248	0.00	30.053 
02:45	27.8	27.8	27.8	78	21.8	1	5	270	0.00	30.053 
02:50	27.8	27.8	27.8	78	21.8	1	4	248	0.00	30.052 
02:55	27.8	27.8	27.8	78	21.8	1	3	248	0.00	30.050 
03:00	27.8	27.8	27.8	78	21.8	1	3	248	0.00	30.040 
03:05	27.8	27.8	27.8	78	21.8	1	3	248	0.00	30.037 
03:10	27.8	27.8	27.8	78	21.8	0	2	248	0.00	30.037 
03:15	27.6	27.6	27.6	78	21.7	0	2	248	0.00	30.036 
03:20	27.6	27.6	27.6	78	21.7	1	3	248	0.00	30.035 
03:25	27.6	27.6	27.6	79	22.0	0	2	248	0.00	30.031 
03:30	27.6	27.6	27.6	79	22.0	0	3	248	0.00	30.026 
03:35	27.6	27.6	27.6	79	22.0	1	3	248	0.00	30.030 
03:40	27.6	27.6	27.6	79	22.0	0	2	248	0.00	30.028 
03:45	27.6	27.6	27.6	79	22.0	0	2	315	0.00	30.027 
03:50	27.6	27.6	27.6	79	22.0	0	1	270	0.00	30.022 
03:55	27.6	27.6	27.6	80	22.3	0	3	270	0.00	30.021 
04:00	27.6	27.6	27.6	80	22.3	1	3	248	0.00	30.020 
04:05	27.6	27.6	27.6	80	22.3	1	2	248	0.00	30.020 
04:10	27.6	27.6	27.6	80	22.3	0	2	248	0.00	30.016 
04:15	27.6	27.6	27.6	80	22.3	0	2	248	0.00	30.020 
04:20	27.6	27.6	27.6	80	22.3	1	3	248	0.00	30.018 
04:25	27.8	27.8	27.8	80	22.4	0	2	270	0.00	30.019 
04:30	27.8	27.8	27.8	80	22.4	0	2	270	0.00	30.017 
04:35	27.8	27.8	27.8	80	22.4	0	3	248	0.00	30.017 
04:40	27.9	27.9	27.9	80	22.5	0	2	270	0.00	30.010 
04:45	27.9	27.9	27.9	80	22.5	0	3	248	0.00	30.007 
04:50	27.9	27.9	27.9	80	22.5	0	2	248	0.00	30.008 
04:55	27.9	27.9	27.9	80	22.5	0	3	248	0.00	30.009 
05:00	27.9	27.9	27.9	80	22.5	1	2	270	0.00	30.012 
05:05	27.9	27.9	27.9	80	22.5	0	1	270	0.00	30.008 
05:10	28.1	28.1	28.1	80	22.7	0	1	270	0.00	30.008 
05:15	28.1	28.1	28.1	80	22.7	0	1	270	0.00	30.008 
05:20	28.1	28.1	28.1	80	22.7	0	2	248	0.00	30.008 
05:25	28.1	28.1	28.1	80	22.7	0	2	248	0.00	30.007 
05:30	28.1	28.1	28.1	80	22.7	0	1	248	0.00	30.006 
05:35	28.1	28.1	28.1	80	22.7	0	2	248	0.00	30.008 
05:40	28.1	28.1	28.1	80	22.7	0	2	248	0.00	30.006 
05:45	28.1	28.1	28.1	80	22.7	0	2	248	0.00	30.005 
05:50	28.1	28.1	28.1	80	22.7	1	3	248	0.00	30.005 
05:55	28.1	28.1	28.1	80	22.7	0	2	248	0.00	30.005 
06:00	28.1	28.1	28.1	81	23.0	0	2	248	0.00	30.003 
06:05	28.1	28.1	28.1	81	23.0	0	1	248	0.00	30.001 
06:10	28.1	28.1	28.1	81	23.0	0	1	248	0.00	29.997 
06:15	28.1	28.1	28.1	81	23.0	0	1	248	0.00	29.990 
06:20	28.1	28.1	28.1	81	23.0	0	3	248	0.00	29.990 
06:25	28.2	28.2	28.2	81	23.1	0	1	248	0.00	29.990 
06:30	28.2	28.2	28.2	81	23.1	0	1	248	0.00	29.992 
06:35	28.2	28.2	28.2	81	23.1	0	1	248	0.00	29.994 
06:40	28.4	28.4	28.4	81	23.3	0	3	248	0.00	29.999 
06:45	28.4	28.4	28.4	81	23.3	0	2	248	0.00	29.994 
06:50	28.4	28.4	28.4	81	23.3	0	3	248	0.00	29.995 
06:55	28.4	28.4	28.4	81	23.3	0	1	248	0.00	29.996 
07:00	28.4	28.4	28.4	81	23.3	0	1	248	0.00	29.990 
07:05	28.4	28.4	28.4	81	23.3	0	2	248	0.00	29.991 
07:10	28.4	28.4	28.4	81	23.3	0	1	248	0.00	29.993 
07:15	28.5	28.5	28.5	81	23.4	0	1	248	0.00	29.992 
07:20	28.5	28.5	28.5	81	23.4	0	1	248	0.00	30.000 
07:25	28.5	28.5	28.5	81	23.4	0	1	248	0.00	29.997 
07:30	28.5	28.5	28.5	81	23.4	0	2	248	0.00	29.991 
07:35	28.5	28.5	28.5	81	23.4	0	2	248	0.00	29.989 
07:40	28.5	28.5	28.5	81	23.4	0	1	248	0.00	29.990 
07:45	28.5	28.5	28.5	81	23.4	0	1	248	0.00	29.989 
07:50	28.5	28.5	28.5	81	23.4	0	1	248	0.00	29.990 
07:55	28.5	28.5	28.5	81	23.4	0	0	---	0.00	29.989 
08:00	28.5	28.5	28.5	81	23.4	0	1	248	0.00	29.990 
08:05	28.5	28.5	28.5	81	23.4	0	1	248	0.00	29.988 
08:10	28.5	28.5	28.5	81	23.4	0	1	248	0.00	29.990 
08:15	28.7	28.7	28.7	81	23.6	0	1	248	0.00	29.989 
08:20	28.7	28.7	28.7	81	23.6	0	2	248	0.00	29.989 
08:25	28.7	28.7	28.7	81	23.6	0	2	248	0.00	29.992 
08:30	28.8	28.8	28.8	81	23.7	0	1	248	0.00	29.993 
08:35	28.8	28.8	28.8	81	23.7	0	2	0	0.00	29.996 
08:40	28.8	28.8	28.8	80	23.4	0	1	0	0.00	29.996 
08:45	28.8	28.8	28.8	79	23.1	0	2	0	0.00	30.002 
08:50	28.8	28.8	28.8	79	23.1	0	1	0	0.00	30.004 
08:55	28.8	28.8	28.8	78	22.8	0	3	292	0.00	30.005 
09:00	28.8	28.8	28.8	78	22.8	0	2	315	0.00	30.005 
09:05	28.8	28.8	28.8	77	22.5	0	3	270	0.00	30.004 
09:10	29.0	29.0	29.0	76	22.4	0	2	270	0.00	30.006 
09:15	29.0	29.0	29.0	76	22.4	0	1	270	0.00	30.007 
09:20	29.1	29.1	29.1	75	22.2	0	2	270	0.00	30.006 
09:25	29.1	29.1	29.1	73	21.5	1	3	270	0.00	30.006 
09:30	29.1	29.1	29.1	73	21.5	1	2	270	0.00	30.006 
09:35	29.3	29.3	29.3	72	21.4	0	2	270	0.00	30.004 
09:40	29.4	29.4	29.4	72	21.5	0	2	270	0.00	30.006 
09:45	29.4	29.4	29.4	72	21.5	0	1	292	0.00	30.004 
09:50	29.5	29.5	29.5	71	21.3	0	3	158	0.00	30.002 
09:55	29.7	29.7	29.7	71	21.5	0	2	22	0.00	30.000 
10:00	29.7	29.7	29.7	70	21.1	0	1	22	0.00	30.001 
10:05	29.8	29.8	29.8	69	20.9	0	3	22	0.00	30.003 
10:10	29.8	29.8	29.8	67	20.2	1	4	0	0.00	30.002 
10:15	29.7	29.7	29.7	66	19.8	1	4	0	0.00	30.001 
10:20	29.7	29.7	29.7	65	19.4	1	4	338	0.00	29.997 
10:25	30.0	30.0	30.0	65	19.7	0	2	0	0.00	29.991 
10:30	30.3	30.3	30.3	66	20.3	0	2	315	0.00	29.989 
10:35	30.4	30.4	30.4	65	20.1	0	2	315	0.00	29.988 
10:40	30.6	30.6	30.6	64	19.9	0	1	315	0.00	29.987 
10:45	30.7	30.7	30.7	64	20.0	1	5	315	0.00	29.979 
10:50	30.4	30.4	30.4	63	19.3	1	5	270	0.00	29.976 
10:55	30.6	30.6	30.6	63	19.5	0	2	270	0.00	29.982 
11:00	30.9	30.9	30.9	64	20.2	0	2	270	0.00	29.985 
11:05	30.9	30.9	30.9	63	19.8	0	2	270	0.00	29.986 
11:10	31.0	31.0	31.0	63	19.9	0	2	292	0.00	29.985 
11:15	31.2	31.2	31.2	62	19.7	0	2	292	0.00	29.976 
11:20	31.2	31.2	31.2	62	19.7	0	2	292	0.00	29.973 
11:25	31.0	31.0	31.0	62	19.5	1	3	0	0.00	29.972 
11:30	31.2	31.2	31.2	61	19.3	1	5	45	0.00	29.971 
11:35	31.2	31.2	31.2	61	19.3	1	3	315	0.00	29.962 
11:40	30.9	30.9	30.9	60	18.7	1	3	315	0.00	29.957 
11:45	31.0	31.0	31.0	62	19.5	0	3	22	0.00	29.955 
11:50	31.2	31.2	31.2	61	19.3	1	5	22	0.00	29.948 
11:55	31.3	31.3	31.3	61	19.4	1	2	22	0.00	29.941 
12:00	31.5	31.5	31.5	60	19.2	1	2	22	0.00	29.939 
12:05	31.3	31.3	31.3	59	18.7	0	3	0	0.00	29.940 
12:10	31.2	31.2	31.2	60	19.0	0	2	0	0.00	29.935 
12:15	31.2	31.2	31.2	60	19.0	1	2	0	0.00	29.936 
12:20	31.3	31.3	31.3	60	19.0	1	4	22	0.00	29.939 
12:25	31.6	31.6	31.6	58	18.5	1	4	22	0.00	29.937 
12:30	31.8	31.8	31.8	60	19.5	1	3	22	0.00	29.930 
12:35	32.1	32.1	32.1	61	20.2	0	2	22	0.00	29.923 
12:40	32.1	32.1	32.1	59	19.4	1	3	22	0.00	29.923 
12:45	31.9	31.9	31.9	58	18.8	1	4	315	0.00	29.920 
12:50	31.6	31.6	31.6	58	18.5	1	2	292	0.00	29.921 
12:55	31.3	31.3	31.3	58	18.3	1	3	68	0.00	29.923 
13:00	31.9	31.9	31.9	59	19.2	1	4	292	0.00	29.915 
13:05	32.5	32.5	32.5	56	18.6	1	3	270	0.00	29.918 
13:10	32.2	32.2	32.2	58	19.1	1	3	292	0.00	29.917 
13:15	31.9	31.9	31.9	58	18.8	1	2	292	0.00	29.913 
13:20	31.6	31.6	31.6	58	18.5	0	2	315	0.00	29.907 
13:25	31.8	31.8	31.8	58	18.7	1	3	292	0.00	29.902 
13:30	31.8	31.8	31.8	57	18.3	1	3	292	0.00	29.902 
13:35	31.5	31.5	31.5	57	18.0	0	2	292	0.00	29.903 
13:40	31.3	31.3	31.3	58	18.3	1	2	292	0.00	29.899 
13:45	31.3	31.3	31.3	58	18.3	1	2	270	0.00	29.897 
13:50	31.5	31.5	31.5	58	18.4	0	2	270	0.00	29.896 
13:55	31.8	31.8	31.8	57	18.3	1	4	292	0.00	29.898 
14:00	31.5	31.5	31.5	57	18.0	0	2	292	0.00	29.899 
14:05	31.5	31.5	31.5	58	18.4	1	4	225	0.00	29.900 
14:10	31.8	31.8	31.8	58	18.7	0	1	292	0.00	29.900 
14:15	32.5	32.5	32.5	58	19.4	1	3	270	0.00	29.898 
14:20	32.4	32.4	32.4	57	18.9	0	3	338	0.00	29.896 
14:25	32.7	32.7	32.7	57	19.2	0	3	248	0.00	29.894 
14:30	32.9	32.9	32.9	57	19.4	0	2	248	0.00	29.893 
14:35	33.4	33.4	33.4	57	19.8	1	3	248	0.00	29.892 
14:40	33.4	33.4	33.4	57	19.8	1	3	248	0.00	29.890 
14:45	33.4	33.4	33.4	55	19.0	1	4	270	0.00	29.891 
14:50	33.5	33.5	33.5	55	19.1	1	3	248	0.00	29.889 
14:55	33.2	33.2	33.2	57	19.6	1	4	248	0.00	29.892 
15:00	33.1	33.1	33.1	56	19.1	1	3	248	0.00	29.893 
15:05	33.1	33.1	33.1	56	19.1	1	2	315	0.00	29.893 
15:10	32.9	32.9	32.9	55	18.5	1	2	315	0.00	29.892 
15:15	32.4	32.4	32.4	56	18.5	1	3	292	0.00	29.891 
15:20	32.2	32.2	32.2	57	18.7	0	3	292	0.00	29.892 
15:25	31.9	31.9	31.9	57	18.4	1	3	338	0.00	29.890 
15:30	32.1	32.1	32.1	57	18.6	1	4	248	0.00	29.886 
15:35	32.1	32.1	32.1	57	18.6	1	3	270	0.00	29.887 
15:40	32.1	32.1	32.1	58	19.0	1	4	292	0.00	29.888 
15:45	31.9	31.9	31.9	58	18.8	0	3	270	0.00	29.887 
15:50	31.9	31.9	31.9	58	18.8	0	2	338	0.00	29.884 
15:55	31.9	31.9	31.9	58	18.8	1	3	292	0.00	29.885 
16:00	31.9	31.9	31.9	58	18.8	1	3	248	0.00	29.881 
16:05	31.8	31.8	31.8	59	19.1	1	2	248	0.00	29.879 
16:10	31.6	31.6	31.6	59	18.9	0	2	315	0.00	29.879 
16:15	31.6	31.6	31.6	60	19.3	0	1	315	0.00	29.877 
16:20	31.5	31.5	31.5	60	19.2	0	1	315	0.00	29.874 
16:25	31.5	31.5	31.5	60	19.2	0	1	315	0.00	29.865 
16:30	31.3	31.3	31.3	60	19.0	0	2	315	0.00	29.862 
16:35	31.3	31.3	31.3	60	19.0	0	1	315	0.00	29.860 
16:40	31.2	31.2	31.2	59	18.6	0	1	315	0.00	29.859 
16:45	31.2	31.2	31.2	59	18.6	0	2	68	0.00	29.852 
16:50	31.0	31.0	31.0	60	18.8	0	1	68	0.00	29.850 
16:55	31.0	31.0	31.0	60	18.8	0	1	68	0.00	29.854 
17:00	31.0	31.0	31.0	61	19.1	0	1	68	0.00	29.853 
17:05	30.9	30.9	30.9	60	18.7	0	0	---	0.00	29.847 
17:10	30.9	30.9	30.9	60	18.7	0	1	68	0.00	29.845 
17:15	30.7	30.7	30.7	60	18.5	0	0	---	0.00	29.844 
17:20	30.6	30.6	30.6	61	18.8	0	0	---	0.00	29.846 
17:25	30.6	30.6	30.6	61	18.8	0	0	---	0.00	29.845 
17:30	30.4	30.4	30.4	62	19.0	0	1	68	0.00	29.843 
17:35	30.4	30.4	30.4	62	19.0	0	0	---	0.00	29.845 
17:40	30.4	30.4	30.4	63	19.3	0	1	68	0.00	29.846 
17:45	30.4	30.4	30.4	63	19.3	0	0	---	0.00	29.848 
17:50	30.3	30.3	30.3	63	19.2	0	1	68	0.00	29.846 
17:55	30.3	30.3	30.3	63	19.2	0	0	---	0.00	29.847 
18:00	30.3	30.3	30.3	63	19.2	0	0	---	0.00	29.846 
18:05	30.3	30.3	30.3	64	19.6	0	0	---	0.00	29.849 
18:10	30.1	30.1	30.1	63	19.0	0	0	---	0.00	29.851 
18:15	30.1	30.1	30.1	63	19.0	0	1	68	0.00	29.851 
18:20	30.1	30.1	30.1	63	19.0	0	1	68	0.00	29.851 
18:25	30.1	30.1	30.1	63	19.0	0	1	68	0.00	29.851 
18:30	30.1	30.1	30.1	64	19.4	0	0	---	0.00	29.847 
18:35	30.1	30.1	30.1	64	19.4	0	0	---	0.00	29.847 
18:40	30.1	30.1	30.1	64	19.4	0	0	---	0.00	29.846 
18:45	30.1	30.1	30.1	63	19.0	0	0	---	0.00	29.846 
18:50	30.0	30.0	30.0	63	19.0	0	0	---	0.00	29.845 
18:55	30.0	30.0	30.0	64	19.3	0	0	---	0.00	29.842 
19:00	30.0	30.0	30.0	64	19.3	0	0	---	0.00	29.843 
19:05	30.0	30.0	30.0	64	19.3	0	0	---	0.00	29.838 
19:10	30.0	30.0	30.0	65	19.7	0	1	68	0.00	29.831 
19:15	30.0	30.0	30.0	64	19.3	0	1	68	0.00	29.821 
19:20	30.0	30.0	30.0	63	19.0	0	1	68	0.00	29.818 
19:25	30.0	30.0	30.0	64	19.3	0	0	---	0.00	29.829 
19:30	30.0	30.0	30.0	64	19.3	0	0	---	0.00	29.832 
19:35	29.8	29.8	29.8	63	18.8	0	0	---	0.00	29.830 
19:40	29.8	29.8	29.8	64	19.1	0	0	---	0.00	29.832 
19:45	29.8	29.8	29.8	63	18.8	0	0	---	0.00	29.832 
19:50	29.8	29.8	29.8	63	18.8	0	0	---	0.00	29.832 
19:55	29.8	29.8	29.8	63	18.8	0	0	---	0.00	29.831 
20:00	29.8	29.8	29.8	64	19.1	0	1	68	0.00	29.830 
20:05	29.8	29.8	29.8	65	19.5	0	2	68	0.00	29.827 
20:10	29.8	29.8	29.8	65	19.5	1	3	68	0.00	29.819 
20:15	29.8	29.8	29.8	68	20.5	1	3	68	0.00	29.815 
20:20	29.5	29.5	29.5	71	21.3	1	3	90	0.00	29.816 
20:25	29.4	29.4	29.4	73	21.8	1	3	90	0.00	29.813 
20:30	29.1	29.1	29.1	73	21.5	2	4	90	0.00	29.813 
20:35	28.8	28.8	28.8	74	21.6	1	3	90	0.00	29.813 
20:40	28.8	28.8	28.8	77	22.5	0	2	90	0.00	29.813 
20:45	28.5	28.5	28.5	78	22.5	1	3	112	0.00	29.811 
20:50	28.1	28.1	28.1	80	22.7	1	3	90	0.00	29.813 
20:55	27.8	27.8	27.8	81	22.7	1	4	90	0.00	29.809 
21:00	27.6	27.6	27.6	83	23.1	1	4	112	0.00	29.809 
21:05	27.5	27.5	27.5	84	23.3	2	4	112	0.00	29.803 
21:10	27.3	27.3	27.3	84	23.1	1	6	112	0.00	29.800 
21:15	27.2	27.2	27.2	85	23.3	2	6	112	0.00	29.799 
21:20	27.2	27.2	27.2	86	23.6	1	2	112	0.00	29.798 
21:25	27.0	27.0	27.0	87	23.7	1	3	112	0.00	29.797 
21:30	26.9	26.9	26.9	87	23.6	1	4	135	0.00	29.796 
21:35	26.7	26.7	26.7	88	23.6	1	4	112	0.00	29.793 
21:40	26.6	26.6	26.6	88	23.5	1	3	90	0.00	29.793 
21:45	26.6	26.6	26.6	88	23.5	1	5	112	0.00	29.795 
21:50	26.4	26.4	26.4	89	23.6	2	6	112	0.00	29.791 
21:55	26.4	26.4	26.4	89	23.6	1	4	112	0.00	29.785 
22:00	26.3	26.3	26.3	89	23.5	2	4	112	0.00	29.784 
22:05	26.3	26.3	26.3	90	23.8	1	3	112	0.00	29.781 
22:10	26.1	26.1	26.1	90	23.6	2	4	112	0.00	29.777 
22:15	26.0	26.0	26.0	90	23.5	2	4	112	0.00	29.774 
22:20	26.0	26.0	26.0	90	23.5	2	4	90	0.00	29.771 
22:25	26.0	26.0	26.0	90	23.5	2	4	112	0.00	29.769 
22:30	26.0	26.0	26.0	90	23.5	2	4	112	0.00	29.760 
22:35	26.0	26.0	26.0	91	23.7	2	3	112	0.00	29.755 
22:40	26.0	26.0	26.0	91	23.7	2	4	112	0.00	29.751 
22:45	26.0	26.0	26.0	91	23.7	2	5	112	0.00	29.752 
22:50	26.0	26.0	26.0	91	23.7	3	7	90	0.00	29.753 
22:55	25.8	25.8	25.8	91	23.5	2	6	90	0.00	29.750 
23:00	25.8	25.8	25.8	91	23.5	2	4	90	0.00	29.749 
23:05	25.8	25.8	25.8	91	23.5	2	4	112	0.00	29.745 
23:10	25.8	25.8	25.8	92	23.8	2	5	112	0.00	29.743 
23:15	25.8	25.8	25.8	91	23.5	2	5	112	0.00	29.746 
23:20	25.7	25.7	25.7	91	23.4	2	4	90	0.00	29.748 
23:25	25.7	25.7	25.7	91	23.4	2	4	112	0.00	29.746 
23:30	25.7	25.7	25.7	92	23.7	1	4	112	0.00	29.746 
23:35	25.8	25.8	25.8	92	23.8	1	4	90	0.00	29.748 
23:40	25.8	25.8	25.8	92	23.8	1	3	90	0.00	29.750 
23:45	25.8	25.8	25.8	92	23.8	1	3	90	0.00	29.751 
23:50	25.7	25.7	25.7	92	23.7	1	4	90	0.00	29.750 
23:55	25.7	25.7	25.7	92	23.7	1	5	90	0.00	29.745 

CoCoRaHS
IN-AL-39
A2 Web Hosting
Creative Commons License
GoDaddy
Look for:

loaded 2017-10-17 22:20:25 • last modified 2010-11-18 10:43:29
Privacy PolicyDisclaimer
• wx.awcolley.com is powered by PmWiki v.2002016 •
• all content (unless otherwise noted) © 2017 A W Colley